Time;durP1;ratioP1;P1;durP2;ratioP2;P2;SDS_P1;SDS_P2;PMS_P1;PMS_P2;Temp;Humidity;BMP_temperature;BMP_pressure;BME280_temperature;BME280_humidity;BME280_pressure;Samples;Min_cycle;Max_cycle;Signal;HPM_P1;HPM_P2
2021/11/29 00:00:27;;;;;;;;;;;;;;;13.63;67.86;100057.22;1046715;28;763;-60
2021/11/29 00:01:18;;;;;;;;;;;;;;;13.62;68.00;100057.38;1050862;28;816;-60
2021/11/29 00:02:08;;;;;;;;;;;;;;;13.62;67.97;100047.50;1050894;28;945;-60
2021/11/29 00:02:59;;;;;;;;;;;;;;;13.62;67.26;100057.38;1051175;28;606;-60
2021/11/29 00:03:49;;;;;;;;;;;;;;;13.63;68.19;100056.38;1050900;28;724;-60
2021/11/29 00:04:39;;;;;;;;;;;;;;;13.62;68.11;100057.38;1050791;28;1868;-61
2021/11/29 00:05:30;;;;;;;;;;;;;;;13.61;67.48;100056.56;1046393;28;654;-61
2021/11/29 00:06:20;;;;;;;;;;;;;;;13.61;67.28;100056.56;1045692;28;881;-60
2021/11/29 00:07:11;;;;;;;;;;;;;;;13.61;67.47;100055.72;1045692;28;587;-61
2021/11/29 00:08:02;;;;;;;;;;;;;;;13.60;67.84;100054.84;1040480;28;1177;-61
2021/11/29 00:08:53;;;;;;;;;;;;;;;13.61;68.07;100063.75;1041539;28;768;-61
2021/11/29 00:09:43;;;;;;;;;;;;;;;13.60;68.25;100060.22;1045572;28;1216;-61
2021/11/29 00:10:34;;;;;;;;;;;;;;;13.59;68.09;100068.38;1046321;28;868;-61
2021/11/29 00:11:24;;;;;;;;;;;;;;;13.59;67.69;100063.03;1045252;28;749;-61
2021/11/29 00:12:14;;;;;;;;;;;;;;;13.58;68.06;100056.81;1048679;28;1840;-61
2021/11/29 00:13:05;;;;;;;;;;;;;;;13.58;67.49;100058.66;1049930;28;713;-61
2021/11/29 00:13:55;;;;;;;;;;;;;;;13.57;67.99;100055.13;1050021;28;659;-61
2021/11/29 00:14:46;;;;;;;;;;;;;;;13.58;67.82;100056.81;1049920;28;821;-61
2021/11/29 00:15:36;;;;;;;;;;;;;;;13.58;67.89;100061.34;1049942;28;727;-61
2021/11/29 00:16:27;;;;;;;;;;;;;;;13.57;67.77;100055.13;1049895;28;818;-61
2021/11/29 00:17:17;;;;;;;;;;;;;;;13.57;67.71;100065.84;1049956;28;781;-61
2021/11/29 00:18:08;;;;;;;;;;;;;;;13.55;67.51;100049.06;1049770;28;630;-60
2021/11/29 00:18:59;;;;;;;;;;;;;;;13.55;68.11;100063.31;1049265;28;829;-60
2021/11/29 00:19:49;;;;;;;;;;;;;;;13.57;67.65;100062.31;1049903;28;645;-60
2021/11/29 00:20:44;;;;;;;;;;;;;;;13.55;67.51;100057.09;1049748;28;787;-60
2021/11/29 00:21:34;;;;;;;;;;;;;;;13.54;67.98;100064.28;1049967;28;783;-60
2021/11/29 00:22:25;;;;;;;;;;;;;;;13.54;67.57;100060.75;1049503;28;1848;-59
2021/11/29 00:23:15;;;;;;;;;;;;;;;13.53;68.03;100065.25;1049869;28;794;-59
2021/11/29 00:24:05;;;;;;;;;;;;;;;13.53;67.36;100065.25;1049807;28;787;-60
2021/11/29 00:24:56;;;;;;;;;;;;;;;13.53;68.08;100072.44;1049815;28;883;-59
2021/11/29 00:25:46;;;;;;;;;;;;;;;13.53;67.26;100067.09;1049940;28;700;-60
2021/11/29 00:26:37;;;;;;;;;;;;;;;13.53;68.35;100067.09;1050517;28;821;-60
2021/11/29 00:27:27;;;;;;;;;;;;;;;13.53;67.94;100065.25;1049825;28;824;-60
2021/11/29 00:28:18;;;;;;;;;;;;;;;13.52;68.05;100066.25;1049839;28;750;-60
2021/11/29 00:29:08;;;;;;;;;;;;;;;13.54;66.97;100071.47;1049249;28;958;-60
2021/11/29 00:29:59;;;;;;;;;;;;;;;13.53;67.67;100070.63;1049104;28;701;-61
2021/11/29 00:30:49;;;;;;;;;;;;;;;13.53;67.66;100073.28;1049359;28;610;-60
2021/11/29 00:31:39;;;;;;;;;;;;;;;13.51;67.75;100067.22;1049863;28;708;-60
2021/11/29 00:32:30;;;;;;;;;;;;;;;13.51;67.02;100071.72;1046204;28;745;-61
2021/11/29 00:33:20;;;;;;;;;;;;;;;13.50;67.31;100070.88;1046220;28;838;-62
2021/11/29 00:34:11;;;;;;;;;;;;;;;13.50;67.50;100068.22;1046226;28;757;-61
2021/11/29 00:35:01;;;;;;;;;;;;;;;13.49;67.57;100076.38;1046927;28;716;-62
2021/11/29 00:35:51;;;;;;;;;;;;;;;13.50;67.40;100068.22;1045648;28;630;-62
2021/11/29 00:36:42;;;;;;;;;;;;;;;13.49;67.84;100069.19;1042701;28;808;-63
2021/11/29 00:37:32;;;;;;;;;;;;;;;13.48;67.53;100067.50;1045614;28;808;-62
2021/11/29 00:38:23;;;;;;;;;;;;;;;13.48;67.28;100072.00;1045694;28;657;-61
2021/11/29 00:39:15;;;;;;;;;;;;;;;13.48;67.11;100075.53;1045801;28;641;-61
2021/11/29 00:40:05;;;;;;;;;;;;;;;13.48;68.34;100067.50;1046910;28;664;-61
2021/11/29 00:40:56;;;;;;;;;;;;;;;13.49;68.02;100073.69;1045704;28;637;-62
2021/11/29 00:41:46;;;;;;;;;;;;;;;13.47;67.70;100073.81;1046138;28;1866;-62
2021/11/29 00:42:37;;;;;;;;;;;;;;;13.48;67.10;100082.72;1049859;28;688;-62
2021/11/29 00:43:27;;;;;;;;;;;;;;;13.47;67.16;100084.53;1049381;28;740;-62
2021/11/29 00:44:18;;;;;;;;;;;;;;;13.48;67.44;100072.00;1049658;28;797;-62
2021/11/29 00:45:08;;;;;;;;;;;;;;;13.46;67.75;100072.13;1049889;28;724;-62
2021/11/29 00:45:59;;;;;;;;;;;;;;;13.46;67.94;100074.81;1049062;28;903;-63
2021/11/29 00:46:49;;;;;;;;;;;;;;;13.46;67.50;100074.81;1046278;28;641;-61
2021/11/29 00:47:39;;;;;;;;;;;;;;;13.46;68.00;100071.28;1046246;28;774;-61
2021/11/29 00:48:30;;;;;;;;;;;;;;;13.46;67.51;100073.97;1046207;28;723;-61
2021/11/29 00:49:20;;;;;;;;;;;;;;;13.45;67.69;100072.28;1046258;28;688;-61
2021/11/29 00:50:11;;;;;;;;;;;;;;;13.44;67.21;100074.09;1046102;28;1889;-61
2021/11/29 00:51:02;;;;;;;;;;;;;;;13.45;67.46;100075.78;1045084;28;663;-61
2021/11/29 00:51:52;;;;;;;;;;;;;;;13.44;67.84;100075.94;1049767;28;1872;-61
2021/11/29 00:52:43;;;;;;;;;;;;;;;13.43;67.32;100075.13;1054204;28;784;-62
2021/11/29 00:53:33;;;;;;;;;;;;;;;13.43;67.97;100077.78;1053727;28;770;-61
2021/11/29 00:54:23;;;;;;;;;;;;;;;13.42;67.12;100081.44;1049803;28;996;-61
2021/11/29 00:55:14;;;;;;;;;;;;;;;13.43;67.32;100085.81;1049756;28;664;-61
2021/11/29 00:56:04;;;;;;;;;;;;;;;13.44;67.26;100081.28;1049889;28;891;-61
2021/11/29 00:56:55;;;;;;;;;;;;;;;13.43;67.76;100074.25;1050230;28;841;-62
2021/11/29 00:57:45;;;;;;;;;;;;;;;13.43;67.04;100083.13;1050394;28;933;-62
2021/11/29 00:58:35;;;;;;;;;;;;;;;13.42;67.24;100084.13;1049611;28;862;-62
2021/11/29 00:59:26;;;;;;;;;;;;;;;13.42;67.45;100086.78;1049626;28;1278;-62
2021/11/29 01:00:16;;;;;;;;;;;;;;;13.43;67.42;100084.97;1049786;28;833;-63
2021/11/29 01:01:07;;;;;;;;;;;;;;;13.41;67.88;100077.06;1049669;28;599;-63
2021/11/29 01:01:57;;;;;;;;;;;;;;;13.41;67.11;100077.06;1045866;28;1930;-63
2021/11/29 01:02:48;;;;;;;;;;;;;;;13.41;67.62;100079.75;1046123;28;989;-62
2021/11/29 01:03:38;;;;;;;;;;;;;;;13.40;68.02;100086.09;1046174;28;689;-62
2021/11/29 01:04:29;;;;;;;;;;;;;;;13.40;67.06;100083.41;1045504;28;690;-62
2021/11/29 01:05:19;;;;;;;;;;;;;;;13.41;67.03;100078.91;1045589;28;661;-62
2021/11/29 01:06:10;;;;;;;;;;;;;;;13.39;67.52;100081.72;1045486;28;611;-63
2021/11/29 01:07:00;;;;;;;;;;;;;;;13.39;67.20;100084.38;1044952;28;1289;-62
2021/11/29 01:07:51;;;;;;;;;;;;;;;13.38;67.67;100088.03;1045349;28;1421;-62
2021/11/29 01:08:41;;;;;;;;;;;;;;;13.39;66.82;100088.91;1045544;28;842;-62
2021/11/29 01:09:31;;;;;;;;;;;;;;;13.38;67.06;100092.56;1045077;28;786;-62
2021/11/29 01:10:22;;;;;;;;;;;;;;;13.38;67.34;100081.84;1046115;28;1910;-62
2021/11/29 01:11:12;;;;;;;;;;;;;;;13.37;67.21;100086.34;1045512;28;826;-62
2021/11/29 01:12:03;;;;;;;;;;;;;;;13.38;66.93;100088.03;1046253;28;602;-62
2021/11/29 01:12:53;;;;;;;;;;;;;;;13.37;66.68;100089.03;1045552;28;844;-62
2021/11/29 01:13:43;;;;;;;;;;;;;;;13.38;67.12;100088.03;1048871;28;1872;-61
2021/11/29 01:14:34;;;;;;;;;;;;;;;13.37;66.94;100091.69;1049106;28;736;-60
2021/11/29 01:15:24;;;;;;;;;;;;;;;13.38;67.19;100096.06;1049178;28;868;-62
2021/11/29 01:16:15;;;;;;;;;;;;;;;13.37;67.28;100097.06;1049094;28;646;-62
2021/11/29 01:17:05;;;;;;;;;;;;;;;13.36;67.39;100095.34;1049068;28;931;-61
2021/11/29 01:17:55;;;;;;;;;;;;;;;13.36;67.53;100097.19;1048925;28;614;-62
2021/11/29 01:18:46;;;;;;;;;;;;;;;13.36;66.90;100090.00;1049050;28;825;-61
2021/11/29 01:19:36;;;;;;;;;;;;;;;13.36;67.78;100094.50;1049205;28;904;-61
2021/11/29 01:20:27;;;;;;;;;;;;;;;13.35;67.19;100092.81;1048915;28;702;-61
2021/11/29 01:21:20;;;;;;;;;;;;;;;13.35;67.39;100098.16;1049065;28;732;-61
2021/11/29 01:22:11;;;;;;;;;;;;;;;13.34;67.11;100096.47;1049658;28;693;-60
2021/11/29 01:23:01;;;;;;;;;;;;;;;13.35;67.30;100104.38;1048483;28;760;-61
2021/11/29 01:23:52;;;;;;;;;;;;;;;13.35;66.99;100096.34;1049205;28;677;-60
2021/11/29 01:24:42;;;;;;;;;;;;;;;13.34;67.34;100097.31;1049657;28;744;-61
2021/11/29 01:25:33;;;;;;;;;;;;;;;13.33;67.20;100092.94;1048754;28;1887;-61
2021/11/29 01:26:23;;;;;;;;;;;;;;;13.33;66.98;100087.59;1049124;28;704;-61
2021/11/29 01:27:14;;;;;;;;;;;;;;;13.34;66.81;100096.47;1048939;28;590;-62
2021/11/29 01:28:04;;;;;;;;;;;;;;;13.35;67.66;100098.16;1045481;28;646;-61
2021/11/29 01:28:55;;;;;;;;;;;;;;;13.33;66.97;100089.44;1045012;28;693;-61
2021/11/29 01:29:45;;;;;;;;;;;;;;;13.33;67.49;100089.44;1044999;28;800;-61
2021/11/29 01:30:35;;;;;;;;;;;;;;;13.33;67.77;100094.78;1045285;28;1960;-61
2021/11/29 01:31:26;;;;;;;;;;;;;;;13.33;67.86;100094.78;1044870;28;709;-61
2021/11/29 01:32:16;;;;;;;;;;;;;;;13.33;67.75;100094.78;1046016;28;1143;-61
2021/11/29 01:33:07;;;;;;;;;;;;;;;13.33;67.88;100089.44;1046064;28;838;-61
2021/11/29 01:33:57;;;;;;;;;;;;;;;13.32;67.41;100093.94;1044654;28;767;-62
2021/11/29 01:34:47;;;;;;;;;;;;;;;13.32;67.14;100087.72;1045318;28;1001;-61
2021/11/29 01:35:38;;;;;;;;;;;;;;;13.32;67.49;100087.72;1045353;28;691;-62
2021/11/29 01:36:28;;;;;;;;;;;;;;;13.31;66.76;100092.22;1044958;28;725;-62
2021/11/29 01:37:19;;;;;;;;;;;;;;;13.32;67.42;100093.09;1045341;28;1027;-61
2021/11/29 01:38:09;;;;;;;;;;;;;;;13.31;67.74;100097.59;1046009;28;876;-61
2021/11/29 01:39:00;;;;;;;;;;;;;;;13.32;66.82;100099.28;1044802;28;623;-61
2021/11/29 01:39:50;;;;;;;;;;;;;;;13.30;66.89;100101.25;1044808;28;671;-61
2021/11/29 01:40:41;;;;;;;;;;;;;;;13.29;66.98;100099.53;1045038;28;769;-61
2021/11/29 01:41:31;;;;;;;;;;;;;;;13.31;66.96;100096.75;1044821;28;800;-61
2021/11/29 01:42:21;;;;;;;;;;;;;;;13.31;67.84;100102.94;1044772;28;853;-61
2021/11/29 01:43:12;;;;;;;;;;;;;;;13.31;67.21;100107.44;1044685;28;833;-61
2021/11/29 01:44:02;;;;;;;;;;;;;;;13.30;67.12;100101.25;1044851;28;953;-61
2021/11/29 01:44:53;;;;;;;;;;;;;;;13.30;67.58;100106.59;1045926;28;787;-61
2021/11/29 01:45:43;;;;;;;;;;;;;;;13.31;67.20;100107.44;1044705;28;1030;-62
2021/11/29 01:46:33;;;;;;;;;;;;;;;13.29;67.81;100110.25;1047093;28;1604;-61
2021/11/29 01:47:24;;;;;;;;;;;;;;;13.29;67.21;100112.06;1049439;28;876;-61
2021/11/29 01:48:14;;;;;;;;;;;;;;;13.29;67.23;100115.59;1049420;28;867;-62
2021/11/29 01:49:05;;;;;;;;;;;;;;;13.30;67.01;100119.13;1049418;28;678;-61
2021/11/29 01:49:55;;;;;;;;;;;;;;;13.28;66.91;100124.59;1049326;28;1912;-61
2021/11/29 01:50:45;;;;;;;;;;;;;;;13.29;67.24;100125.47;1048995;28;903;-61
2021/11/29 01:51:36;;;;;;;;;;;;;;;13.27;66.93;100128.25;1048922;28;803;-61
2021/11/29 01:52:26;;;;;;;;;;;;;;;13.28;67.30;100129.97;1048826;28;1490;-61
2021/11/29 01:53:17;;;;;;;;;;;;;;;13.28;67.37;100129.97;1048826;28;736;-61
2021/11/29 01:54:08;;;;;;;;;;;;;;;13.27;66.58;100128.25;1048932;28;645;-60
2021/11/29 01:54:58;;;;;;;;;;;;;;;13.28;66.71;100129.13;1048830;28;728;-60
2021/11/29 01:55:49;;;;;;;;;;;;;;;13.27;67.51;100135.44;1048878;28;626;-61
2021/11/29 01:56:39;;;;;;;;;;;;;;;13.26;67.53;100131.91;1048934;28;757;-61
2021/11/29 01:57:30;;;;;;;;;;;;;;;13.25;67.79;100130.25;1048668;28;794;-61
2021/11/29 01:58:20;;;;;;;;;;;;;;;13.25;67.80;100132.94;1048913;28;713;-61
2021/11/29 01:59:10;;;;;;;;;;;;;;;13.26;66.98;100125.72;1048927;28;1317;-61
2021/11/29 02:00:01;;;;;;;;;;;;;;;13.25;67.49;100129.41;1048957;28;693;-61
2021/11/29 02:00:51;;;;;;;;;;;;;;;13.24;67.54;100130.38;1052894;28;851;-61
2021/11/29 02:01:42;;;;;;;;;;;;;;;13.24;66.95;100119.69;1051632;28;1897;-61
2021/11/29 02:02:32;;;;;;;;;;;;;;;13.24;67.29;100127.72;1046781;28;736;-61
2021/11/29 02:03:24;;;;;;;;;;;;;;;13.24;66.60;100128.56;1045900;28;773;-61
2021/11/29 02:04:14;;;;;;;;;;;;;;;13.23;67.04;100123.34;1045337;28;753;-61
2021/11/29 02:05:04;;;;;;;;;;;;;;;13.23;67.42;100132.22;1044735;28;865;-61
2021/11/29 02:05:55;;;;;;;;;;;;;;;13.23;66.66;100129.53;1045382;28;681;-62
2021/11/29 02:06:45;;;;;;;;;;;;;;;13.23;66.58;100134.88;1045493;28;1010;-61
2021/11/29 02:07:37;;;;;;;;;;;;;;;13.24;66.53;100141.09;1045800;28;1052;-63
2021/11/29 02:08:27;;;;;;;;;;;;;;;13.24;67.23;100147.28;1044754;28;804;-61
2021/11/29 02:09:18;;;;;;;;;;;;;;;13.23;67.20;100134.03;1044788;28;870;-61
2021/11/29 02:10:08;;;;;;;;;;;;;;;13.22;66.72;100141.22;1045196;28;682;-61
2021/11/29 02:10:58;;;;;;;;;;;;;;;13.22;67.48;100135.03;1044829;28;662;-61
2021/11/29 02:11:49;;;;;;;;;;;;;;;13.19;67.43;100134.31;1045911;28;787;-62
2021/11/29 02:12:39;;;;;;;;;;;;;;;13.20;67.56;100127.13;1044737;28;812;-62
2021/11/29 02:13:30;;;;;;;;;;;;;;;13.20;66.74;100133.31;1045231;28;1512;-62
2021/11/29 02:14:20;;;;;;;;;;;;;;;13.20;66.93;100132.47;1048847;28;728;-62
2021/11/29 02:15:10;;;;;;;;;;;;;;;13.20;67.55;100132.47;1049040;28;768;-60
2021/11/29 02:16:01;;;;;;;;;;;;;;;13.19;67.58;100130.78;1048766;28;667;-62
2021/11/29 02:16:51;;;;;;;;;;;;;;;13.19;67.65;100131.63;1048954;28;662;-62
2021/11/29 02:17:42;;;;;;;;;;;;;;;13.19;67.58;100130.78;1048706;28;748;-60
2021/11/29 02:18:32;;;;;;;;;;;;;;;13.19;67.40;100122.75;1048795;28;805;-61
2021/11/29 02:19:23;;;;;;;;;;;;;;;13.18;67.01;100124.59;1048903;28;793;-62
2021/11/29 02:20:13;;;;;;;;;;;;;;;13.19;66.49;100130.78;1048812;28;637;-61
2021/11/29 02:21:03;;;;;;;;;;;;;;;13.19;67.51;100120.06;1048873;28;740;-61
2021/11/29 02:21:54;;;;;;;;;;;;;;;13.19;66.93;100128.09;1048633;28;833;-61
2021/11/29 02:22:44;;;;;;;;;;;;;;;13.20;66.89;100127.13;1048860;28;1140;-61
2021/11/29 02:23:35;;;;;;;;;;;;;;;13.20;67.20;100127.13;1049281;28;1136;-60
2021/11/29 02:24:25;;;;;;;;;;;;;;;13.18;67.20;100123.72;1048847;28;673;-61
2021/11/29 02:25:16;;;;;;;;;;;;;;;13.18;67.11;100123.72;1048738;28;750;-62
2021/11/29 02:26:06;;;;;;;;;;;;;;;13.17;67.50;100117.53;1048977;28;1808;-62
2021/11/29 02:26:56;;;;;;;;;;;;;;;13.17;66.46;100122.03;1051387;28;715;-62
2021/11/29 02:27:47;;;;;;;;;;;;;;;13.16;66.66;100128.38;1049641;28;1972;-62
2021/11/29 02:28:37;;;;;;;;;;;;;;;13.15;66.59;100118.66;1049491;28;797;-62
2021/11/29 02:29:28;;;;;;;;;;;;;;;13.14;67.59;100117.75;1048534;28;737;-62
2021/11/29 02:30:18;;;;;;;;;;;;;;;13.15;67.36;100115.97;1048621;28;1885;-62
2021/11/29 02:31:09;;;;;;;;;;;;;;;13.14;66.97;100117.75;1048881;28;839;-62
2021/11/29 02:31:59;;;;;;;;;;;;;;;13.15;66.79;100118.66;1048810;28;622;-61
2021/11/29 02:32:49;;;;;;;;;;;;;;;13.15;66.74;100115.97;1048910;28;1026;-62
2021/11/29 02:33:40;;;;;;;;;;;;;;;13.15;66.96;100107.94;1048851;28;812;-62
2021/11/29 02:34:30;;;;;;;;;;;;;;;13.15;66.69;100114.13;1048691;28;808;-62
2021/11/29 02:35:21;;;;;;;;;;;;;;;13.13;67.17;100109.88;1049037;28;693;-60
2021/11/29 02:36:12;;;;;;;;;;;;;;;13.13;66.53;100107.19;1049377;28;968;-60
2021/11/29 02:37:02;;;;;;;;;;;;;;;13.13;67.13;100115.22;1044962;28;666;-60
2021/11/29 02:37:53;;;;;;;;;;;;;;;13.12;67.55;100117.03;1045383;28;1936;-61
2021/11/29 02:38:43;;;;;;;;;;;;;;;13.12;67.71;100111.69;1049344;28;818;-60
2021/11/29 02:39:34;;;;;;;;;;;;;;;13.13;67.13;100115.22;1048849;28;711;-62
2021/11/29 02:40:25;;;;;;;;;;;;;;;13.12;67.16;100121.53;1048696;28;722;-61
2021/11/29 02:41:15;;;;;;;;;;;;;;;13.11;67.12;100118.03;1048768;28;728;-61
2021/11/29 02:42:06;;;;;;;;;;;;;;;13.12;67.41;100108.19;1048641;28;677;-61
2021/11/29 02:42:56;;;;;;;;;;;;;;;13.11;66.72;100112.69;1048533;28;842;-62
2021/11/29 02:43:47;;;;;;;;;;;;;;;13.12;67.53;100119.72;1048855;28;759;-61
2021/11/29 02:44:37;;;;;;;;;;;;;;;13.11;67.12;100109.16;1048556;28;767;-61
2021/11/29 02:45:27;;;;;;;;;;;;;;;13.11;67.29;100111.81;1048817;28;782;-61
2021/11/29 02:46:18;;;;;;;;;;;;;;;13.10;66.87;100105.63;1048540;28;1582;-61
2021/11/29 02:47:08;;;;;;;;;;;;;;;13.09;66.77;100103.09;1048802;28;2165;-61
2021/11/29 02:47:59;;;;;;;;;;;;;;;13.09;67.08;100106.59;1048675;28;782;-61
2021/11/29 02:48:49;;;;;;;;;;;;;;;13.10;67.64;100105.63;1048724;28;929;-61
2021/11/29 02:49:40;;;;;;;;;;;;;;;13.11;67.51;100103.81;1048870;28;708;-61
2021/11/29 02:50:30;;;;;;;;;;;;;;;13.11;67.14;100101.13;1048551;28;1902;-61
2021/11/29 02:51:20;;;;;;;;;;;;;;;13.11;67.59;100101.13;1048807;28;796;-62
2021/11/29 02:52:11;;;;;;;;;;;;;;;13.10;67.63;100100.28;1048630;28;639;-62
2021/11/29 02:53:01;;;;;;;;;;;;;;;13.10;66.88;100102.09;1048757;28;869;-61
2021/11/29 02:53:52;;;;;;;;;;;;;;;13.09;67.04;100097.75;1052830;28;701;-61
2021/11/29 02:54:44;;;;;;;;;;;;;;;13.09;66.87;100095.06;1053742;28;670;-62
2021/11/29 02:55:34;;;;;;;;;;;;;;;13.10;67.47;100099.44;1049389;28;780;-61
2021/11/29 02:56:24;;;;;;;;;;;;;;;13.09;67.42;100097.75;1048793;28;729;-61
2021/11/29 02:57:15;;;;;;;;;;;;;;;13.08;67.45;100102.22;1045043;28;870;-60
2021/11/29 02:58:05;;;;;;;;;;;;;;;13.09;67.44;100103.09;1044592;28;681;-61
2021/11/29 02:58:56;;;;;;;;;;;;;;;13.08;67.31;100101.38;1045838;28;716;-60
2021/11/29 02:59:46;;;;;;;;;;;;;;;13.08;67.09;100096.88;1044539;28;878;-61
2021/11/29 03:00:37;;;;;;;;;;;;;;;13.08;66.90;100101.38;1044785;28;790;-58
2021/11/29 03:01:27;;;;;;;;;;;;;;;13.08;66.83;100096.88;1045683;28;950;-60
2021/11/29 03:02:18;;;;;;;;;;;;;;;13.09;66.67;100108.44;1044656;28;814;-61
2021/11/29 03:03:08;;;;;;;;;;;;;;;13.10;67.10;100107.47;1045176;28;689;-61
2021/11/29 03:03:58;;;;;;;;;;;;;;;13.10;67.05;100108.31;1045159;28;772;-60
2021/11/29 03:04:49;;;;;;;;;;;;;;;13.09;66.99;100103.09;1045218;28;687;-60
2021/11/29 03:05:39;;;;;;;;;;;;;;;13.09;66.93;100105.75;1045063;28;859;-61
2021/11/29 03:06:30;;;;;;;;;;;;;;;13.07;66.60;100105.94;1045166;28;720;-60
2021/11/29 03:07:20;;;;;;;;;;;;;;;13.08;67.04;100101.38;1044365;28;1057;-60
2021/11/29 03:08:11;;;;;;;;;;;;;;;13.07;66.75;100105.06;1045090;28;1369;-60
2021/11/29 03:09:01;;;;;;;;;;;;;;;13.07;67.21;100113.09;1045153;28;642;-60
2021/11/29 03:09:52;;;;;;;;;;;;;;;13.07;66.70;100115.78;1043472;28;1131;-60
2021/11/29 03:10:42;;;;;;;;;;;;;;;13.07;66.61;100115.78;1045590;28;1981;-61
2021/11/29 03:11:32;;;;;;;;;;;;;;;13.07;66.61;100115.78;1045791;28;721;-61
2021/11/29 03:12:23;;;;;;;;;;;;;;;13.06;67.14;100114.94;1045747;28;827;-61
2021/11/29 03:13:13;;;;;;;;;;;;;;;13.06;66.43;100120.28;1045764;28;759;-61
2021/11/29 03:14:04;;;;;;;;;;;;;;;13.06;67.48;100119.44;1045703;28;839;-61
2021/11/29 03:14:54;;;;;;;;;;;;;;;13.06;67.44;100125.63;1045785;28;791;-61
2021/11/29 03:15:45;;;;;;;;;;;;;;;13.06;67.37;100132.81;1046133;28;877;-60
2021/11/29 03:16:35;;;;;;;;;;;;;;;13.05;66.67;100133.78;1045645;28;749;-60
2021/11/29 03:17:25;;;;;;;;;;;;;;;13.05;67.51;100129.28;1045690;28;645;-61
2021/11/29 03:18:16;;;;;;;;;;;;;;;13.05;66.72;100123.09;1045002;28;943;-59
2021/11/29 03:19:06;;;;;;;;;;;;;;;13.05;66.66;100118.56;1045779;28;772;-61
2021/11/29 03:19:57;;;;;;;;;;;;;;;13.05;66.85;100118.56;1045791;28;747;-61
2021/11/29 03:20:47;;;;;;;;;;;;;;;13.04;67.48;100116.03;1045723;28;665;-61
2021/11/29 03:21:37;;;;;;;;;;;;;;;13.02;66.67;100123.34;1045615;28;689;-62
2021/11/29 03:22:28;;;;;;;;;;;;;;;13.02;67.12;100128.69;1045468;28;1372;-61
2021/11/29 03:23:18;;;;;;;;;;;;;;;13.02;66.76;100131.38;1045811;28;653;-62
2021/11/29 03:24:09;;;;;;;;;;;;;;;13.03;67.48;100125.03;1045034;28;729;-62
2021/11/29 03:24:59;;;;;;;;;;;;;;;13.02;67.04;100123.34;1045663;28;706;-62
2021/11/29 03:25:50;;;;;;;;;;;;;;;13.02;66.94;100126.88;1045741;28;799;-62
2021/11/29 03:26:40;;;;;;;;;;;;;;;13.01;67.45;100127.84;1045648;28;937;-62
2021/11/29 03:27:30;;;;;;;;;;;;;;;13.01;67.11;100124.31;1054266;28;747;-62
2021/11/29 03:28:21;;;;;;;;;;;;;;;13.01;66.52;100135.88;1053722;28;816;-62
2021/11/29 03:29:11;;;;;;;;;;;;;;;13.02;66.62;100136.72;1049393;28;1990;-62
2021/11/29 03:30:02;;;;;;;;;;;;;;;13.01;67.49;100138.53;1048886;28;761;-61
2021/11/29 03:30:52;;;;;;;;;;;;;;;13.01;67.23;100132.34;1048450;28;1071;-62
2021/11/29 03:31:42;;;;;;;;;;;;;;;12.99;66.76;100129.81;1048620;28;689;-62
2021/11/29 03:32:36;;;;;;;;;;;;;;;13.00;67.45;100138.66;1048400;28;619;-62
2021/11/29 03:33:26;;;;;;;;;;;;;;;12.99;66.52;100135.16;1048650;28;684;-62
2021/11/29 03:34:17;;;;;;;;;;;;;;;12.97;67.28;100120.22;1048507;28;747;-62
2021/11/29 03:35:07;;;;;;;;;;;;;;;12.98;66.93;100133.44;1048565;28;867;-62
2021/11/29 03:35:58;;;;;;;;;;;;;;;12.98;67.32;100133.44;1048752;28;680;-62
2021/11/29 03:36:48;;;;;;;;;;;;;;;12.98;67.41;100132.59;1048561;28;852;-62
2021/11/29 03:37:38;;;;;;;;;;;;;;;12.97;66.77;100130.91;1048460;28;950;-61
2021/11/29 03:38:29;;;;;;;;;;;;;;;12.97;66.64;100131.75;1048428;28;696;-61
2021/11/29 03:39:19;;;;;;;;;;;;;;;12.97;66.87;100137.09;1048137;28;1888;-61
2021/11/29 03:40:10;;;;;;;;;;;;;;;12.97;67.35;100130.91;1048773;28;675;-60
2021/11/29 03:41:00;;;;;;;;;;;;;;;12.97;67.13;100128.22;1048490;28;934;-61
2021/11/29 03:41:51;;;;;;;;;;;;;;;12.97;67.08;100128.22;1052661;28;674;-60
2021/11/29 03:42:41;;;;;;;;;;;;;;;12.97;66.73;100129.09;1050684;28;648;-61
2021/11/29 03:43:31;;;;;;;;;;;;;;;12.96;66.88;100127.38;1046034;28;794;-60
2021/11/29 03:44:22;;;;;;;;;;;;;;;12.96;66.92;100127.38;1050188;28;780;-60
2021/11/29 03:45:12;;;;;;;;;;;;;;;12.96;66.93;100129.22;1048535;28;1111;-60
2021/11/29 03:46:03;;;;;;;;;;;;;;;12.95;67.04;100136.38;1048720;28;666;-60
2021/11/29 03:46:53;;;;;;;;;;;;;;;12.95;66.66;100138.22;1045816;28;666;-60
2021/11/29 03:47:44;;;;;;;;;;;;;;;12.93;67.16;100138.34;1046969;28;716;-61
2021/11/29 03:48:34;;;;;;;;;;;;;;;12.95;66.45;100139.06;1046390;28;692;-62
2021/11/29 03:49:25;;;;;;;;;;;;;;;12.96;67.24;100142.59;1046335;28;885;-62
2021/11/29 03:50:15;;;;;;;;;;;;;;;12.95;67.05;100143.56;1046272;28;1894;-62
2021/11/29 03:51:05;;;;;;;;;;;;;;;12.95;67.17;100144.41;1046801;28;1920;-62
2021/11/29 03:51:56;;;;;;;;;;;;;;;12.94;67.34;100147.22;1049314;28;702;-62
2021/11/29 03:52:46;;;;;;;;;;;;;;;12.94;67.35;100148.06;1049448;28;681;-62
2021/11/29 03:53:37;;;;;;;;;;;;;;;12.93;67.21;100141.00;1049163;28;751;-61
2021/11/29 03:54:27;;;;;;;;;;;;;;;12.93;66.74;100140.16;1048822;28;2370;-61
2021/11/29 03:55:18;;;;;;;;;;;;;;;12.93;67.26;100141.00;1049244;28;837;-61
2021/11/29 03:56:08;;;;;;;;;;;;;;;12.93;66.56;100141.00;1049093;28;792;-62
2021/11/29 03:56:59;;;;;;;;;;;;;;;12.92;66.56;100142.00;1049427;28;732;-62
2021/11/29 03:57:50;;;;;;;;;;;;;;;12.93;67.49;100140.16;1049148;28;903;-61
2021/11/29 03:58:40;;;;;;;;;;;;;;;12.92;66.53;100149.16;1049387;28;732;-62
2021/11/29 03:59:31;;;;;;;;;;;;;;;12.93;66.64;100153.53;1049397;28;1317;-62
2021/11/29 04:00:21;;;;;;;;;;;;;;;12.93;66.91;100145.50;1049302;28;724;-62
2021/11/29 04:01:11;;;;;;;;;;;;;;;12.93;66.71;100150.88;1049419;28;670;-62
2021/11/29 04:02:02;;;;;;;;;;;;;;;12.92;66.53;100150.00;1049195;28;743;-62
2021/11/29 04:02:52;;;;;;;;;;;;;;;12.92;67.51;100143.81;1053271;28;662;-62
2021/11/29 04:03:43;;;;;;;;;;;;;;;12.91;67.28;100145.66;1054969;28;852;-62
2021/11/29 04:04:33;;;;;;;;;;;;;;;12.90;67.39;100148.47;1050058;28;795;-62
2021/11/29 04:05:24;;;;;;;;;;;;;;;12.90;67.16;100140.44;1049265;28;2014;-62
2021/11/29 04:06:14;;;;;;;;;;;;;;;12.91;66.87;100144.78;1049276;28;944;-62
2021/11/29 04:07:04;;;;;;;;;;;;;;;12.89;66.78;100147.63;1049508;28;697;-62
2021/11/29 04:07:55;;;;;;;;;;;;;;;12.89;67.13;100154.81;1049756;28;1350;-62
2021/11/29 04:08:45;;;;;;;;;;;;;;;12.89;66.45;100152.97;1049372;28;778;-61
2021/11/29 04:09:36;;;;;;;;;;;;;;;12.89;66.90;100155.66;1049481;28;701;-61
2021/11/29 04:10:26;;;;;;;;;;;;;;;12.89;67.10;100155.66;1049094;28;1965;-61
2021/11/29 04:11:16;;;;;;;;;;;;;;;12.88;67.24;100151.28;1049955;28;652;-61
2021/11/29 04:12:07;;;;;;;;;;;;;;;12.89;67.18;100150.31;1049329;28;650;-61
2021/11/29 04:12:57;;;;;;;;;;;;;;;12.88;67.08;100147.75;1045501;28;803;-61
2021/11/29 04:13:48;;;;;;;;;;;;;;;12.89;66.89;100154.81;1046103;28;752;-61
2021/11/29 04:14:38;;;;;;;;;;;;;;;12.89;67.06;100161.00;1049732;28;867;-61
2021/11/29 04:15:29;;;;;;;;;;;;;;;12.88;67.21;100161.13;1049226;28;1961;-61
2021/11/29 04:16:19;;;;;;;;;;;;;;;12.88;66.40;100159.31;1048664;28;797;-61
2021/11/29 04:17:09;;;;;;;;;;;;;;;12.88;66.43;100150.44;1049320;28;644;-61
2021/11/29 04:18:00;;;;;;;;;;;;;;;12.87;66.54;100160.28;1049180;28;662;-61
2021/11/29 04:18:50;;;;;;;;;;;;;;;12.87;67.19;100154.94;1049231;28;751;-61
2021/11/29 04:19:44;;;;;;;;;;;;;;;12.86;67.11;100158.59;1049293;28;697;-61
2021/11/29 04:20:34;;;;;;;;;;;;;;;12.86;66.69;100155.91;1049754;28;840;-61
2021/11/29 04:21:25;;;;;;;;;;;;;;;12.86;66.85;100155.91;1049343;28;707;-61
2021/11/29 04:22:15;;;;;;;;;;;;;;;12.87;66.31;100154.94;1049164;28;1319;-61
2021/11/29 04:23:06;;;;;;;;;;;;;;;12.87;66.71;100152.25;1049367;28;753;-60
2021/11/29 04:23:57;;;;;;;;;;;;;;;12.86;67.36;100154.09;1049312;28;645;-61
2021/11/29 04:24:48;;;;;;;;;;;;;;;12.85;66.70;100154.22;1049869;28;843;-61
2021/11/29 04:25:46;;;;;;;;;;;;;;;12.84;66.36;100153.38;1049162;28;789;-61